createdAt,value
2017-07-08T00:02:09.669Z,81.10
2017-07-08T00:04:37.208Z,81.30
2017-07-08T00:07:07.778Z,81.50
2017-07-08T00:09:38.256Z,81.70
2017-07-08T00:12:09.384Z,81.80
2017-07-08T00:14:36.967Z,82.10
2017-07-08T00:17:08.438Z,82.00
2017-07-08T00:19:35.991Z,82.20
2017-07-08T00:22:03.519Z,82.10
2017-07-08T00:24:33.925Z,82.10
2017-07-08T00:27:01.903Z,82.20
2017-07-08T00:29:33.707Z,82.50
2017-07-08T00:32:01.240Z,82.50
2017-07-08T00:34:32.568Z,82.60
2017-07-08T00:37:00.533Z,82.80
2017-07-08T00:39:28.468Z,83.10
2017-07-08T00:41:58.373Z,83.10
2017-07-08T00:44:25.918Z,83.70
2017-07-08T00:46:56.481Z,83.90
2017-07-08T00:49:28.564Z,83.60
2017-07-08T00:51:56.516Z,82.80
2017-07-08T00:54:25.518Z,82.80
2017-07-08T00:56:53.090Z,82.80
2017-07-08T00:59:20.619Z,82.90
2017-07-08T01:01:48.150Z,83.20
2017-07-08T01:04:19.100Z,83.40
2017-07-08T01:06:48.028Z,83.60
2017-07-08T01:09:15.988Z,84.20
2017-07-08T01:11:44.546Z,84.10
2017-07-08T01:14:12.100Z,84.20
2017-07-08T01:16:39.666Z,84.40
2017-07-08T01:19:07.251Z,84.30
2017-07-08T01:21:35.473Z,84.30
2017-07-08T01:24:03.533Z,84.60
2017-07-08T01:26:31.106Z,84.70
2017-07-08T01:28:58.641Z,84.30
2017-07-08T01:31:26.215Z,84.20
2017-07-08T01:33:53.754Z,84.40
2017-07-08T01:36:21.346Z,84.00
2017-07-08T01:38:48.891Z,84.10
2017-07-08T01:41:16.536Z,84.30
2017-07-08T01:43:44.135Z,84.50
2017-07-08T01:46:12.872Z,84.70
2017-07-08T01:48:40.712Z,85.00
2017-07-08T01:51:08.635Z,85.40
2017-07-08T01:53:37.307Z,85.30
2017-07-08T01:56:05.337Z,85.20
2017-07-08T01:58:37.538Z,85.20
2017-07-08T02:01:05.737Z,85.40
2017-07-08T02:03:33.311Z,85.80
2017-07-08T02:06:00.868Z,85.90
2017-07-08T02:08:28.400Z,86.30
2017-07-08T02:10:59.612Z,87.30
2017-07-08T02:13:27.142Z,87.80
2017-07-08T02:15:59.627Z,86.20
2017-07-08T02:18:27.580Z,85.80
2017-07-08T02:20:55.126Z,85.80
2017-07-08T02:23:24.656Z,85.80
2017-07-08T02:25:52.605Z,86.00
2017-07-08T02:28:22.645Z,86.00
2017-07-08T02:30:50.569Z,85.80
2017-07-08T02:33:18.154Z,85.80
2017-07-08T02:35:46.102Z,86.30
2017-07-08T02:38:13.658Z,86.30
2017-07-08T02:40:41.281Z,86.30
2017-07-08T02:43:17.275Z,86.10
2017-07-08T02:45:44.812Z,86.60
2017-07-08T02:48:12.384Z,86.20
2017-07-08T02:50:39.920Z,85.60
2017-07-08T02:53:07.571Z,85.60
2017-07-08T02:55:36.358Z,86.20
2017-07-08T02:58:03.914Z,87.20
2017-07-08T03:00:34.252Z,86.80
2017-07-08T03:03:01.792Z,86.50
2017-07-08T03:05:30.870Z,86.80
2017-07-08T03:07:58.815Z,87.20
2017-07-08T03:12:58.788Z,87.40
2017-07-08T03:15:26.349Z,87.20
2017-07-08T03:17:56.831Z,86.60
2017-07-08T03:20:24.386Z,86.40
2017-07-08T03:22:51.938Z,86.40
2017-07-08T03:25:19.479Z,87.00
2017-07-08T03:27:47.053Z,87.00
2017-07-08T03:30:17.367Z,86.80
2017-07-08T03:32:44.932Z,87.00
2017-07-08T03:35:12.473Z,86.80
2017-07-08T03:37:40.010Z,86.80
2017-07-08T03:40:08.000Z,87.20
2017-07-08T03:42:35.924Z,87.70
2017-07-08T03:45:06.316Z,88.10
2017-07-08T03:47:33.863Z,88.10
2017-07-08T03:50:01.559Z,88.30
2017-07-08T03:52:29.124Z,88.30
2017-07-08T03:54:57.077Z,87.80
2017-07-08T03:57:28.552Z,87.80
2017-07-08T03:59:56.490Z,87.70
2017-07-08T04:02:28.284Z,87.70
2017-07-08T04:04:55.829Z,87.90
2017-07-08T04:07:23.391Z,87.80
2017-07-08T04:09:55.845Z,87.80
2017-07-08T04:12:23.404Z,88.40
2017-07-08T04:14:51.378Z,88.90
2017-07-08T04:17:21.988Z,88.90
2017-07-08T04:19:49.552Z,89.20
2017-07-08T04:22:20.028Z,89.50
2017-07-08T04:24:47.605Z,89.90
2017-07-08T04:27:18.910Z,90.10
2017-07-08T04:29:46.473Z,90.00
2017-07-08T04:32:14.048Z,90.20
2017-07-08T04:34:41.596Z,90.40
2017-07-08T04:37:09.217Z,90.20
2017-07-08T04:39:37.443Z,89.90
2017-07-08T04:42:09.868Z,89.80
2017-07-08T04:44:40.056Z,89.70
2017-07-08T04:47:08.044Z,89.80
2017-07-08T04:49:37.297Z,90.10
2017-07-08T04:52:09.190Z,90.30
2017-07-08T04:54:41.913Z,89.90
2017-07-08T04:57:09.523Z,89.60
2017-07-08T04:59:40.108Z,90.00
2017-07-08T05:02:07.977Z,90.00
2017-07-08T05:04:36.325Z,90.10
2017-07-08T05:07:08.145Z,90.20
2017-07-08T05:09:36.761Z,90.20
2017-07-08T05:12:08.163Z,90.30
2017-07-08T05:14:36.687Z,90.20
2017-07-08T05:17:04.241Z,89.80
2017-07-08T05:19:31.846Z,89.90
2017-07-08T05:21:59.448Z,89.60
2017-07-08T05:24:26.976Z,89.50
2017-07-08T05:26:54.528Z,89.60
2017-07-08T05:29:22.057Z,89.70
2017-07-08T05:31:49.610Z,89.90
2017-07-08T05:34:17.193Z,90.00
2017-07-08T05:36:52.175Z,89.70
2017-07-08T05:39:19.722Z,89.70
2017-07-08T05:41:47.294Z,90.10
2017-07-08T05:44:19.101Z,90.00
2017-07-08T05:46:46.663Z,89.90
2017-07-08T05:49:15.126Z,89.40
2017-07-08T05:51:43.228Z,89.10
2017-07-08T05:54:13.715Z,89.00
2017-07-08T05:56:48.853Z,88.30
2017-07-08T05:59:19.226Z,87.90
2017-07-08T06:01:46.782Z,87.70
2017-07-08T06:04:14.336Z,87.50
2017-07-08T06:06:44.183Z,87.60
2017-07-08T06:09:14.193Z,87.40
2017-07-08T06:11:42.223Z,87.10
2017-07-08T06:14:09.810Z,87.10
2017-07-08T06:16:41.259Z,87.30
2017-07-08T06:19:11.797Z,87.10
2017-07-08T06:21:39.361Z,86.70
2017-07-08T06:24:07.473Z,86.60
2017-07-08T06:26:36.144Z,86.50
2017-07-08T06:29:03.670Z,86.50
2017-07-08T06:31:31.238Z,86.60
2017-07-08T06:34:11.168Z,85.70
2017-07-08T06:36:44.538Z,85.70
2017-07-08T06:39:12.078Z,86.10
2017-07-08T06:41:39.636Z,85.40
2017-07-08T06:44:09.249Z,85.40
2017-07-08T06:46:37.197Z,84.50
2017-07-08T06:49:06.128Z,84.90
2017-07-08T06:51:33.674Z,84.90
2017-07-08T06:54:01.225Z,85.00
2017-07-08T06:56:28.762Z,85.30
2017-07-08T06:58:56.723Z,80.00
2017-07-08T07:01:24.324Z,80.00
2017-07-08T07:03:51.879Z,79.60
2017-07-08T07:06:21.419Z,82.00
2017-07-08T07:08:48.985Z,80.90
2017-07-08T07:11:19.396Z,77.70
2017-07-08T07:13:46.928Z,77.80
2017-07-08T07:16:14.474Z,76.30
2017-07-08T07:18:43.471Z,77.60
2017-07-08T07:21:13.472Z,80.50
2017-07-08T07:23:41.406Z,79.60
2017-07-08T07:26:08.969Z,79.60
2017-07-08T07:28:43.539Z,78.90
2017-07-08T07:31:11.084Z,77.90
2017-07-08T07:33:38.620Z,77.40
2017-07-08T07:36:06.820Z,75.90
2017-07-08T07:38:38.268Z,75.60
2017-07-08T07:41:06.931Z,72.60
2017-07-08T07:43:35.363Z,72.60
2017-07-08T07:46:06.226Z,72.60
2017-07-08T07:48:33.974Z,74.00
2017-07-08T07:51:01.521Z,74.80
2017-07-08T07:53:29.100Z,68.80
2017-07-08T07:55:56.629Z,68.00
2017-07-08T07:58:24.152Z,67.90
2017-07-08T08:00:52.104Z,68.50
2017-07-08T08:03:19.698Z,68.50
2017-07-08T08:05:47.378Z,68.40
2017-07-08T08:08:14.914Z,68.50
2017-07-08T08:10:42.507Z,67.90
2017-07-08T08:13:10.043Z,66.50
2017-07-08T08:15:37.589Z,64.80
2017-07-08T08:18:06.152Z,65.50
2017-07-08T08:20:33.698Z,63.60
2017-07-08T08:23:01.352Z,64.40
2017-07-08T08:25:28.880Z,62.70
2017-07-08T08:27:56.528Z,63.20
2017-07-08T08:30:24.059Z,62.40
2017-07-08T08:32:52.000Z,61.10
2017-07-08T08:35:19.565Z,61.10
2017-07-08T08:37:47.159Z,61.20
2017-07-08T08:40:14.752Z,60.20
2017-07-08T08:42:42.428Z,58.90
2017-07-08T08:45:10.023Z,59.00
2017-07-08T08:47:39.553Z,59.60
2017-07-08T08:50:07.735Z,57.90
2017-07-08T08:52:36.296Z,59.10
2017-07-08T08:55:03.840Z,60.20
2017-07-08T08:57:31.412Z,60.90
2017-07-08T08:59:58.955Z,60.80
2017-07-08T09:02:26.919Z,59.90
2017-07-08T09:04:54.850Z,59.70
2017-07-08T09:07:22.399Z,59.80
2017-07-08T09:09:50.266Z,59.60
2017-07-08T09:12:17.811Z,60.00
2017-07-08T09:14:45.370Z,59.40
2017-07-08T09:17:12.905Z,59.30
2017-07-08T09:19:40.764Z,59.80
2017-07-08T09:22:08.716Z,58.90
2017-07-08T09:24:37.429Z,58.90
2017-07-08T09:27:05.079Z,59.40
2017-07-08T09:29:33.189Z,57.10
2017-07-08T09:32:00.882Z,57.10
2017-07-08T09:34:28.856Z,57.50
2017-07-08T09:36:56.384Z,57.50
2017-07-08T09:39:23.940Z,57.70
2017-07-08T09:41:51.496Z,57.20
2017-07-08T09:44:19.039Z,57.00
2017-07-08T09:46:46.582Z,57.20
2017-07-08T09:49:14.109Z,56.60
2017-07-08T09:51:41.638Z,57.30
2017-07-08T09:54:09.538Z,57.50
2017-07-08T09:56:37.129Z,57.50
2017-07-08T09:59:04.627Z,57.80
2017-07-08T10:01:32.246Z,58.10
2017-07-08T10:03:59.762Z,57.80
2017-07-08T10:06:27.664Z,56.90
2017-07-08T10:08:55.183Z,57.00
2017-07-08T10:11:22.696Z,57.30
2017-07-08T10:13:50.235Z,56.30
2017-07-08T10:16:17.726Z,55.90
2017-07-08T10:18:45.251Z,55.00
2017-07-08T10:21:12.777Z,55.00
2017-07-08T10:23:40.302Z,53.50
2017-07-08T10:26:07.826Z,55.00
2017-07-08T10:28:35.326Z,54.50
2017-07-08T10:31:02.851Z,53.00
2017-07-08T10:33:30.383Z,53.10
2017-07-08T10:35:57.956Z,54.70
2017-07-08T10:38:25.665Z,54.50
2017-07-08T10:40:53.201Z,53.80
2017-07-08T10:43:20.787Z,54.20
2017-07-08T10:45:48.289Z,54.60
2017-07-08T10:48:15.813Z,53.10
2017-07-08T10:50:43.306Z,51.70
2017-07-08T10:53:10.830Z,52.90
2017-07-08T10:55:38.338Z,51.60
2017-07-08T10:58:05.886Z,51.20
2017-07-08T11:00:33.384Z,51.40
2017-07-08T11:03:00.956Z,50.70
2017-07-08T11:05:28.510Z,51.20
2017-07-08T11:07:56.009Z,51.80
2017-07-08T11:10:23.525Z,52.80
2017-07-08T11:12:51.447Z,52.60
2017-07-08T11:15:18.994Z,52.60
2017-07-08T11:17:46.509Z,52.50
2017-07-08T11:20:14.029Z,52.10
2017-07-08T11:22:41.560Z,51.40
2017-07-08T11:25:09.092Z,52.80
2017-07-08T11:27:37.002Z,51.40
2017-07-08T11:30:04.510Z,51.40
2017-07-08T11:32:32.029Z,51.20
2017-07-08T11:34:59.922Z,51.30
2017-07-08T11:37:27.643Z,51.30
2017-07-08T11:39:55.167Z,51.40
2017-07-08T11:42:22.698Z,53.00
2017-07-08T11:44:50.230Z,53.20
2017-07-08T11:47:17.729Z,52.90
2017-07-08T11:49:45.248Z,53.20
2017-07-08T11:52:12.751Z,52.30
2017-07-08T11:54:40.268Z,51.20
2017-07-08T11:57:07.771Z,52.10
2017-07-08T11:59:35.303Z,52.40
2017-07-08T12:02:03.201Z,51.80
2017-07-08T12:04:30.722Z,51.80
2017-07-08T12:06:58.240Z,52.80
2017-07-08T12:09:26.191Z,51.60
2017-07-08T12:11:53.685Z,51.60
2017-07-08T12:14:21.213Z,52.90
2017-07-08T12:16:48.722Z,52.40
2017-07-08T12:19:16.642Z,51.10
2017-07-08T12:21:44.141Z,51.10
2017-07-08T12:24:11.675Z,50.60
2017-07-08T12:26:39.180Z,50.30
2017-07-08T12:29:06.703Z,50.80
2017-07-08T12:31:34.203Z,52.20
2017-07-08T12:34:01.727Z,51.90
2017-07-08T12:36:29.638Z,50.30
2017-07-08T12:38:57.218Z,50.30
2017-07-08T12:41:24.750Z,50.30
2017-07-08T12:43:52.305Z,51.60
2017-07-08T12:46:19.822Z,51.40
2017-07-08T12:48:47.326Z,51.60
2017-07-08T12:51:15.115Z,52.10
2017-07-08T12:53:42.646Z,51.70
2017-07-08T12:56:10.155Z,51.20
2017-07-08T12:58:37.682Z,51.90
2017-07-08T13:01:05.204Z,51.60
2017-07-08T13:12:10.955Z,52.60
2017-07-08T13:14:38.886Z,52.70
2017-07-08T13:17:06.423Z,51.90
2017-07-08T13:19:33.986Z,51.30
2017-07-08T13:22:01.588Z,52.70
2017-07-08T13:24:29.098Z,52.10
2017-07-08T13:26:56.629Z,52.40
2017-07-08T13:29:24.153Z,53.00
2017-07-08T13:31:51.695Z,52.70
2017-07-08T13:34:19.219Z,53.50
2017-07-08T13:36:46.763Z,53.40
2017-07-08T13:39:14.294Z,52.30
2017-07-08T13:41:42.223Z,52.20
2017-07-08T13:44:10.629Z,52.10
2017-07-08T13:46:38.162Z,52.80
2017-07-08T13:49:05.752Z,53.20
2017-07-08T13:51:33.271Z,53.80
2017-07-08T13:54:02.038Z,53.00
2017-07-08T13:56:30.341Z,53.70
2017-07-08T14:01:50.468Z,51.80
2017-07-08T14:04:18.417Z,52.10
2017-07-08T14:06:45.936Z,52.10
2017-07-08T14:09:13.485Z,50.50
2017-07-08T14:11:41.031Z,50.80
2017-07-08T14:14:08.572Z,50.50
2017-07-08T14:16:36.139Z,50.30
2017-07-08T14:19:04.019Z,50.00
2017-07-08T14:21:31.586Z,50.50
2017-07-08T14:23:59.112Z,49.80
2017-07-08T14:26:26.643Z,50.40
2017-07-08T14:28:54.192Z,50.40
2017-07-08T14:31:21.803Z,50.60
2017-07-08T14:33:49.473Z,51.00
2017-07-08T14:36:17.070Z,50.80
2017-07-08T14:38:44.670Z,50.60
2017-07-08T14:41:12.239Z,51.10
2017-07-08T14:43:39.766Z,51.00
2017-07-08T14:46:07.333Z,50.70
2017-07-08T14:48:35.307Z,50.40
2017-07-08T14:51:02.987Z,50.40
2017-07-08T14:53:31.092Z,50.60
2017-07-08T14:55:59.187Z,51.60
2017-07-08T14:58:26.851Z,51.50
2017-07-08T15:00:54.404Z,51.40
2017-07-08T15:03:21.961Z,51.10
2017-07-08T15:05:49.471Z,50.80
2017-07-08T15:08:17.024Z,52.30
2017-07-08T15:10:44.560Z,52.10
2017-07-08T15:13:12.167Z,50.90
2017-07-08T15:15:40.076Z,51.30
2017-07-08T15:18:07.607Z,51.30
2017-07-08T15:20:35.119Z,51.30
2017-07-08T15:23:03.098Z,50.90
2017-07-08T15:25:30.755Z,50.90
2017-07-08T15:27:58.308Z,51.10
2017-07-08T15:30:25.857Z,51.90
2017-07-08T15:32:53.407Z,50.80
2017-07-08T15:35:21.971Z,51.70
2017-07-08T15:37:51.423Z,50.30
2017-07-08T15:40:19.013Z,51.20
2017-07-08T15:42:46.536Z,51.30
2017-07-08T15:45:25.718Z,50.90
2017-07-08T15:47:53.286Z,51.10
2017-07-08T15:50:20.815Z,51.60
2017-07-08T15:52:48.375Z,52.50
2017-07-08T15:55:15.879Z,51.90
2017-07-08T15:57:43.483Z,51.80
2017-07-08T16:00:11.041Z,52.10
2017-07-08T16:02:38.631Z,49.70
2017-07-08T16:05:06.191Z,49.80
2017-07-08T16:07:33.772Z,49.10
2017-07-08T16:10:01.290Z,49.80
2017-07-08T16:12:32.540Z,50.50
2017-07-08T16:39:38.050Z,52.40
2017-07-08T16:42:05.596Z,53.20
2017-07-08T16:44:33.662Z,52.90
2017-07-08T16:47:01.201Z,52.90
2017-07-08T16:49:28.838Z,53.50
2017-07-08T16:51:56.539Z,53.40
2017-07-08T16:54:24.073Z,53.60
2017-07-08T16:56:51.625Z,53.70
2017-07-08T16:59:19.164Z,54.00
2017-07-08T17:01:46.861Z,54.20
2017-07-08T17:04:14.401Z,54.10
2017-07-08T17:06:43.089Z,53.80
2017-07-08T17:09:10.604Z,54.00
2017-07-08T17:11:38.265Z,53.80
2017-07-08T17:14:05.883Z,53.70
2017-07-08T17:16:34.528Z,54.30
2017-07-08T17:19:02.044Z,54.40
2017-07-08T17:21:29.987Z,53.80
2017-07-08T17:23:57.525Z,53.80
2017-07-08T17:26:25.164Z,54.40
2017-07-08T17:28:52.698Z,54.50
2017-07-08T17:31:21.093Z,54.70
2017-07-08T17:33:48.740Z,54.70
2017-07-08T17:36:16.709Z,54.20
2017-07-08T17:38:44.223Z,54.20
2017-07-08T17:41:11.966Z,54.80
2017-07-08T17:43:39.587Z,54.60
2017-07-08T17:46:07.685Z,55.00
2017-07-08T17:48:35.220Z,55.00
2017-07-08T17:51:03.328Z,55.70
2017-07-08T17:53:30.990Z,55.60
2017-07-08T17:55:58.636Z,56.20
2017-07-08T17:58:26.255Z,56.60
2017-07-08T18:00:54.261Z,57.20
2017-07-08T18:03:21.804Z,57.20
2017-07-08T18:05:49.553Z,57.70
2017-07-08T18:08:17.641Z,58.40
2017-07-08T18:10:45.356Z,58.40
2017-07-08T18:13:13.007Z,58.70
2017-07-08T18:15:40.625Z,59.10
2017-07-08T18:18:08.358Z,59.30
2017-07-08T18:20:35.950Z,59.90
2017-07-08T18:23:03.585Z,60.10
2017-07-08T18:25:31.168Z,60.00
2017-07-08T18:27:58.721Z,60.10
2017-07-08T18:30:26.262Z,60.10
2017-07-08T18:32:53.768Z,60.70
2017-07-08T18:35:21.482Z,60.80
2017-07-08T18:37:50.117Z,61.30
2017-07-08T18:40:17.697Z,61.30
2017-07-08T18:42:45.375Z,60.80
2017-07-08T18:45:12.913Z,61.20
2017-07-08T18:47:40.449Z,61.30
2017-07-08T18:50:07.952Z,61.50
2017-07-08T18:52:36.114Z,61.80
2017-07-08T18:55:03.672Z,61.80
2017-07-08T18:57:31.497Z,61.80
2017-07-08T18:59:59.007Z,62.10
2017-07-08T19:02:27.055Z,62.20
2017-07-08T19:04:54.583Z,62.20
2017-07-08T19:07:22.334Z,62.20
2017-07-08T19:09:49.872Z,62.40
2017-07-08T19:12:17.778Z,62.80
2017-07-08T19:14:45.329Z,62.80
2017-07-08T19:17:12.979Z,62.80
2017-07-08T19:19:40.504Z,62.80
2017-07-08T19:22:08.376Z,63.00
2017-07-08T19:24:35.921Z,63.00
2017-07-08T19:27:03.718Z,63.10
2017-07-08T19:29:31.245Z,63.10
2017-07-08T19:31:59.187Z,63.40
2017-07-08T19:34:26.717Z,63.40
2017-07-08T19:36:54.260Z,63.50
2017-07-08T19:39:21.780Z,64.00
2017-07-08T19:41:49.509Z,63.60
2017-07-08T19:44:17.108Z,64.20
2017-07-08T19:46:44.764Z,64.50
2017-07-08T19:49:12.296Z,64.80
2017-07-08T19:51:40.202Z,64.70
2017-07-08T19:54:08.137Z,64.40
2017-07-08T19:56:35.756Z,64.30
2017-07-08T19:59:03.308Z,64.40
2017-07-08T20:01:30.830Z,64.60
2017-07-08T20:03:58.357Z,64.70
2017-07-08T20:06:25.988Z,64.70
2017-07-08T20:08:53.518Z,64.90
2017-07-08T20:11:21.781Z,66.00
2017-07-08T20:13:49.722Z,65.60
2017-07-08T20:16:17.397Z,65.60
2017-07-08T20:18:44.901Z,65.40
2017-07-08T20:21:12.472Z,65.70
2017-07-08T20:23:40.001Z,65.80
2017-07-08T20:26:08.054Z,66.50
2017-07-08T20:28:35.601Z,66.50
2017-07-08T20:31:03.145Z,66.80
2017-07-08T20:33:30.683Z,66.90
2017-07-08T20:35:58.296Z,66.90
2017-07-08T20:38:25.842Z,67.60
2017-07-08T20:40:53.516Z,68.50
2017-07-08T20:43:21.450Z,69.10
2017-07-08T20:45:49.162Z,69.10
2017-07-08T20:48:17.120Z,69.60
2017-07-08T20:50:45.048Z,69.50
2017-07-08T20:53:13.581Z,69.50
2017-07-08T20:55:41.513Z,70.40
2017-07-08T20:58:09.667Z,70.50
2017-07-08T21:00:39.231Z,70.70
2017-07-08T21:03:06.840Z,71.00
2017-07-08T21:05:35.325Z,71.20
2017-07-08T21:08:02.983Z,71.30
2017-07-08T21:10:30.588Z,71.40
2017-07-08T21:12:59.973Z,71.60
2017-07-08T21:15:27.897Z,72.20
2017-07-08T21:17:56.139Z,72.20
2017-07-08T21:20:23.800Z,72.70
2017-07-08T21:22:52.873Z,72.90
2017-07-08T21:25:20.804Z,72.90
2017-07-08T21:27:48.437Z,72.90
2017-07-08T21:30:15.961Z,73.40
2017-07-08T21:32:43.894Z,73.90
2017-07-08T21:35:11.448Z,73.90
2017-07-08T21:37:38.971Z,74.00
2017-07-08T21:40:06.539Z,74.30
2017-07-08T21:42:34.075Z,74.80
2017-07-08T21:45:01.660Z,75.20
2017-07-08T21:47:29.320Z,74.80
2017-07-08T21:49:56.875Z,74.90
2017-07-08T21:52:24.468Z,75.20
2017-07-08T21:54:52.412Z,75.60
2017-07-08T21:57:19.984Z,75.60
2017-07-08T21:59:47.525Z,75.80
2017-07-08T22:02:15.075Z,76.00
2017-07-08T22:04:42.598Z,76.00
2017-07-08T22:07:10.531Z,76.40
2017-07-08T22:09:38.043Z,76.40
2017-07-08T22:12:05.640Z,76.90
2017-07-08T22:14:33.171Z,76.80
2017-07-08T22:17:00.703Z,76.80
2017-07-08T22:19:28.648Z,76.90
2017-07-08T22:21:56.169Z,76.90
2017-07-08T22:24:23.705Z,76.80
2017-07-08T22:26:51.229Z,76.80
2017-07-08T22:29:19.172Z,76.80
2017-07-08T22:31:46.691Z,76.80
2017-07-08T22:34:14.252Z,76.90
2017-07-08T22:36:41.772Z,77.00
2017-07-08T22:39:09.692Z,77.30
2017-07-08T22:41:37.236Z,77.30
2017-07-08T22:44:04.760Z,77.50
2017-07-08T22:46:32.308Z,77.20
2017-07-08T22:48:59.829Z,77.00
2017-07-08T22:51:27.379Z,77.20
2017-07-08T22:53:54.900Z,77.50
2017-07-08T22:56:22.468Z,77.50
2017-07-08T22:58:49.997Z,77.60
2017-07-08T23:01:17.535Z,77.60
2017-07-08T23:03:45.086Z,77.60
2017-07-08T23:06:12.642Z,77.60
2017-07-08T23:08:40.184Z,77.80
2017-07-08T23:11:07.719Z,77.90
2017-07-08T23:13:35.323Z,77.90
2017-07-08T23:16:02.848Z,78.20
2017-07-08T23:18:30.414Z,77.90
2017-07-08T23:20:57.935Z,77.90
2017-07-08T23:23:25.855Z,78.20
2017-07-08T23:25:53.402Z,78.20
2017-07-08T23:28:20.933Z,78.20
2017-07-08T23:30:48.471Z,78.30
2017-07-08T23:33:16.382Z,78.40
2017-07-08T23:35:43.935Z,78.40
2017-07-08T23:38:11.451Z,78.50
2017-07-08T23:40:38.999Z,78.60
2017-07-08T23:43:06.550Z,78.80
2017-07-08T23:45:34.084Z,78.90
2017-07-08T23:48:01.628Z,78.90
2017-07-08T23:50:29.172Z,79.20
2017-07-08T23:52:56.711Z,79.40
2017-07-08T23:55:24.642Z,79.80
2017-07-08T23:57:52.185Z,79.80
